createdAt,value
2018-09-19T00:01:31.383Z,101449.22
2018-09-19T00:04:55.889Z,101440.92
2018-09-19T00:08:20.302Z,101438.49
2018-09-19T00:11:44.718Z,101443.45
2018-09-19T00:15:09.175Z,101442.44
2018-09-19T00:18:33.621Z,101447.30
2018-09-19T00:21:58.044Z,101448.91
2018-09-19T00:25:22.476Z,101448.95
2018-09-19T00:28:46.897Z,101447.65
2018-09-19T00:32:11.423Z,101450.19
2018-09-19T00:35:35.952Z,101453.34
2018-09-19T00:39:00.430Z,101461.09
2018-09-19T00:42:24.889Z,101463.20
2018-09-19T00:45:49.314Z,101459.78
2018-09-19T00:49:13.721Z,101460.17
2018-09-19T00:52:38.187Z,101450.55
2018-09-19T00:56:02.657Z,101447.47
2018-09-19T00:59:27.093Z,101449.77
2018-09-19T01:02:51.543Z,101454.94
2018-09-19T01:06:16.001Z,101457.02
2018-09-19T01:09:40.417Z,101456.16
2018-09-19T01:13:04.807Z,101457.67
2018-09-19T01:16:29.204Z,101460.66
2018-09-19T01:19:53.669Z,101458.14
2018-09-19T01:23:18.120Z,101462.41
2018-09-19T01:26:42.534Z,101463.09
2018-09-19T01:30:07.561Z,101471.34
2018-09-19T01:33:31.956Z,101472.60
2018-09-19T01:36:56.406Z,101472.23
2018-09-19T01:40:20.842Z,101463.86
2018-09-19T01:43:45.286Z,101462.61
2018-09-19T01:47:09.703Z,101464.88
2018-09-19T01:50:34.124Z,101471.33
2018-09-19T01:53:58.547Z,101475.02
2018-09-19T01:57:23.035Z,101470.98
2018-09-19T02:00:47.465Z,101468.59
2018-09-19T02:04:11.910Z,101469.59
2018-09-19T02:07:36.551Z,101464.36
2018-09-19T02:11:00.949Z,101469.93
2018-09-19T02:14:25.382Z,101469.71
2018-09-19T02:17:49.833Z,101484.77
2018-09-19T02:21:14.267Z,101480.81
2018-09-19T02:24:38.735Z,101476.53
2018-09-19T02:28:03.505Z,101473.19
2018-09-19T02:31:28.211Z,101470.52
2018-09-19T02:34:52.668Z,101468.40
2018-09-19T02:38:17.107Z,101462.14
2018-09-19T02:41:41.506Z,101465.33
2018-09-19T02:45:06.023Z,101470.83
2018-09-19T02:48:30.457Z,101474.80
2018-09-19T02:51:57.947Z,101468.11
2018-09-19T02:55:22.552Z,101469.77
2018-09-19T02:58:47.062Z,101467.17
2018-09-19T03:02:11.445Z,101467.98
2018-09-19T03:05:35.846Z,101460.58
2018-09-19T03:09:00.278Z,101451.53
2018-09-19T03:12:24.764Z,101458.52
2018-09-19T03:15:49.170Z,101460.26
2018-09-19T03:19:13.611Z,101468.84
2018-09-19T03:22:38.095Z,101469.36
2018-09-19T03:26:02.515Z,101476.77
2018-09-19T03:29:27.150Z,101482.36
2018-09-19T03:32:51.606Z,101479.62
2018-09-19T03:36:16.032Z,101483.83
2018-09-19T03:39:40.452Z,101489.48
2018-09-19T03:43:04.888Z,101483.53
2018-09-19T03:46:29.313Z,101481.85
2018-09-19T03:49:53.772Z,101478.08
2018-09-19T03:53:18.192Z,101472.44
2018-09-19T03:56:42.626Z,101475.35
2018-09-19T04:00:07.156Z,101476.85
2018-09-19T04:03:31.590Z,101485.55
2018-09-19T04:06:56.005Z,101484.07
2018-09-19T04:10:20.500Z,101486.49
2018-09-19T04:13:44.906Z,101486.12
2018-09-19T04:17:09.345Z,101489.69
2018-09-19T04:20:33.768Z,101494.91
2018-09-19T04:23:58.227Z,101489.28
2018-09-19T04:27:22.641Z,101487.20
2018-09-19T04:30:47.077Z,101484.05
2018-09-19T04:34:11.469Z,101487.44
2018-09-19T04:37:35.951Z,101485.08
2018-09-19T04:41:00.386Z,101481.47
2018-09-19T04:44:24.993Z,101481.91
2018-09-19T04:47:49.581Z,101491.08
2018-09-19T04:51:14.016Z,101488.36
2018-09-19T04:54:38.437Z,101480.09
2018-09-19T04:58:02.848Z,101477.23
2018-09-19T05:01:27.301Z,101477.78
2018-09-19T05:04:51.749Z,101482.72
2018-09-19T05:08:16.276Z,101477.83
2018-09-19T05:11:40.856Z,101479.87
2018-09-19T05:15:05.310Z,101477.64
2018-09-19T05:18:29.838Z,101476.67
2018-09-19T05:21:54.307Z,101478.02
2018-09-19T05:25:18.767Z,101481.48
2018-09-19T05:28:43.192Z,101481.92
2018-09-19T05:32:07.661Z,101476.59
2018-09-19T05:35:32.095Z,101483.77
2018-09-19T05:38:56.562Z,101482.98
2018-09-19T05:42:21.006Z,101483.34
2018-09-19T05:45:45.458Z,101477.79
2018-09-19T05:49:09.889Z,101470.06
2018-09-19T05:52:34.316Z,101466.41
2018-09-19T05:55:58.831Z,101463.63
2018-09-19T05:59:23.252Z,101457.77
2018-09-19T06:02:47.669Z,101462.32
2018-09-19T06:06:12.116Z,101464.95
2018-09-19T06:09:36.531Z,101470.99
2018-09-19T06:13:01.003Z,101470.48
2018-09-19T06:16:25.384Z,101470.02
2018-09-19T06:19:50.268Z,101466.20
2018-09-19T06:23:14.686Z,101466.84
2018-09-19T06:26:39.123Z,101461.83
2018-09-19T06:30:03.595Z,101453.73
2018-09-19T06:33:28.043Z,101443.77
2018-09-19T06:36:52.504Z,101442.20
2018-09-19T06:40:16.945Z,101437.87
2018-09-19T06:43:41.358Z,101442.58
2018-09-19T06:47:05.916Z,101437.05
2018-09-19T06:50:30.327Z,101433.52
2018-09-19T06:53:54.792Z,101430.02
2018-09-19T06:57:19.257Z,101437.44
2018-09-19T07:00:43.691Z,101454.70
2018-09-19T07:04:08.196Z,101462.84
2018-09-19T07:07:32.660Z,101466.95
2018-09-19T07:10:57.111Z,101465.62
2018-09-19T07:14:21.592Z,101474.78
2018-09-19T07:17:46.023Z,101475.44
2018-09-19T07:21:10.554Z,101476.11
2018-09-19T07:24:34.958Z,101479.26
2018-09-19T07:27:59.482Z,101485.20
2018-09-19T07:31:23.909Z,101475.03
2018-09-19T07:34:48.401Z,101472.19
2018-09-19T07:38:12.796Z,101479.35
2018-09-19T07:41:37.194Z,101470.41
2018-09-19T07:45:01.651Z,101464.59
2018-09-19T07:48:26.079Z,101466.83
2018-09-19T07:51:50.555Z,101474.89
2018-09-19T07:55:15.082Z,101471.02
2018-09-19T07:58:39.529Z,101480.03
2018-09-19T08:02:03.954Z,101486.65
2018-09-19T08:05:28.394Z,101480.08
2018-09-19T08:08:52.834Z,101488.53
2018-09-19T08:12:17.201Z,101485.75
2018-09-19T08:15:41.625Z,101491.64
2018-09-19T08:19:06.028Z,101488.77
2018-09-19T08:22:30.550Z,101496.16
2018-09-19T08:25:54.886Z,101493.02
2018-09-19T08:29:19.317Z,101484.15
2018-09-19T08:32:43.778Z,101479.78
2018-09-19T08:36:08.306Z,101469.37
2018-09-19T08:39:32.778Z,101478.02
2018-09-19T08:42:57.242Z,101472.72
2018-09-19T08:46:21.712Z,101464.03
2018-09-19T08:49:46.185Z,101461.77
2018-09-19T08:53:13.232Z,101461.02
2018-09-19T08:56:37.635Z,101459.36
2018-09-19T09:00:02.133Z,101466.08
2018-09-19T09:03:26.599Z,101466.06
2018-09-19T09:06:51.059Z,101465.20
2018-09-19T09:10:18.466Z,101462.88
2018-09-19T09:13:42.944Z,101462.27
2018-09-19T09:17:07.322Z,101462.53
2018-09-19T09:20:31.789Z,101447.49
2018-09-19T09:23:56.224Z,101457.79
2018-09-19T09:27:20.764Z,101451.11
2018-09-19T09:30:45.138Z,101458.82
2018-09-19T09:34:09.675Z,101448.59
2018-09-19T09:37:34.326Z,101450.65
2018-09-19T09:40:58.769Z,101450.80
2018-09-19T09:44:23.294Z,101446.72
2018-09-19T09:47:47.723Z,101447.63
2018-09-19T09:51:12.140Z,101441.08
2018-09-19T09:54:36.766Z,101439.12
2018-09-19T09:58:01.322Z,101433.64
2018-09-19T10:01:25.791Z,101435.31
2018-09-19T10:04:50.240Z,101439.70
2018-09-19T10:08:14.693Z,101442.27
2018-09-19T10:11:39.126Z,101436.39
2018-09-19T10:15:03.527Z,101442.55
2018-09-19T10:18:28.012Z,101440.72
2018-09-19T10:21:52.428Z,101434.98
2018-09-19T10:25:16.919Z,101422.86
2018-09-19T10:28:41.367Z,101432.30
2018-09-19T10:32:05.893Z,101433.58
2018-09-19T10:35:30.325Z,101424.42
2018-09-19T10:38:54.798Z,101418.92
2018-09-19T10:42:19.227Z,101419.36
2018-09-19T10:45:43.683Z,101421.30
2018-09-19T10:49:08.184Z,101427.26
2018-09-19T10:52:32.594Z,101420.09
2018-09-19T10:55:57.106Z,101423.58
2018-09-19T10:59:21.565Z,101414.66
2018-09-19T11:02:46.040Z,101416.03
2018-09-19T11:06:10.497Z,101432.34
2018-09-19T11:09:34.925Z,101420.65
2018-09-19T11:12:59.344Z,101427.84
2018-09-19T11:16:23.755Z,101420.75
2018-09-19T11:19:48.331Z,101401.16
2018-09-19T11:23:12.785Z,101409.75
2018-09-19T11:26:37.207Z,101401.06
2018-09-19T11:30:01.666Z,101419.59
2018-09-19T11:33:26.106Z,101412.16
2018-09-19T11:36:50.528Z,101395.85
2018-09-19T11:40:14.967Z,101402.22
2018-09-19T11:43:39.483Z,101410.16
2018-09-19T11:47:03.959Z,101400.42
2018-09-19T11:50:28.446Z,101409.05
2018-09-19T11:53:52.889Z,101425.09
2018-09-19T11:57:17.566Z,101409.98
2018-09-19T12:00:41.980Z,101415.61
2018-09-19T12:04:06.482Z,101408.93
2018-09-19T12:07:31.318Z,101424.37
2018-09-19T12:10:55.751Z,101407.44
2018-09-19T12:14:20.207Z,101401.62
2018-09-19T12:17:44.680Z,101410.27
2018-09-19T12:21:09.120Z,101389.55
2018-09-19T12:24:33.528Z,101387.78
2018-09-19T12:27:58.179Z,101390.06
2018-09-19T12:31:22.621Z,101392.91
2018-09-19T12:34:47.075Z,101396.43
2018-09-19T12:38:11.923Z,101390.52
2018-09-19T12:41:36.398Z,101378.27
2018-09-19T12:45:00.800Z,101386.09
2018-09-19T12:48:25.199Z,101370.20
2018-09-19T12:51:49.630Z,101385.38
2018-09-19T12:55:14.110Z,101381.31
2018-09-19T12:58:38.973Z,101367.86
2018-09-19T13:02:03.386Z,101358.02
2018-09-19T13:05:27.829Z,101373.34
2018-09-19T13:08:52.282Z,101365.95
2018-09-19T13:12:16.940Z,101365.02
2018-09-19T13:15:41.343Z,101367.94
2018-09-19T13:19:05.777Z,101351.31
2018-09-19T13:22:30.224Z,101365.73
2018-09-19T13:25:54.633Z,101350.35
2018-09-19T13:29:19.073Z,101365.33
2018-09-19T13:32:43.496Z,101349.50
2018-09-19T13:36:07.903Z,101344.58
2018-09-19T13:39:32.337Z,101347.52
2018-09-19T13:42:56.802Z,101339.02
2018-09-19T13:46:21.308Z,101320.42
2018-09-19T13:49:52.767Z,101319.97
2018-09-19T13:53:21.438Z,101329.27
2018-09-19T13:56:45.853Z,101322.36
2018-09-19T14:00:10.299Z,101347.00
2018-09-19T14:03:34.729Z,101347.31
2018-09-19T14:06:59.115Z,101330.47
2018-09-19T14:10:23.592Z,101319.01
2018-09-19T14:13:48.008Z,101312.61
2018-09-19T14:17:12.399Z,101317.00
2018-09-19T14:20:37.125Z,101316.19
2018-09-19T14:24:01.600Z,101321.52
2018-09-19T14:27:26.013Z,101309.16
2018-09-19T14:30:50.422Z,101321.22
2018-09-19T14:34:14.850Z,101304.20
2018-09-19T14:37:39.287Z,101305.67
2018-09-19T14:41:03.759Z,101309.47
2018-09-19T14:44:28.188Z,101309.66
2018-09-19T14:47:52.708Z,101318.11
2018-09-19T14:51:17.123Z,101314.45
2018-09-19T14:54:41.572Z,101308.63
2018-09-19T14:58:06.025Z,101303.08
2018-09-19T15:01:30.417Z,101297.48
2018-09-19T15:04:55.020Z,101297.98
2018-09-19T15:08:19.465Z,101301.64
2018-09-19T15:11:43.901Z,101312.55
2018-09-19T15:15:08.318Z,101321.66
2018-09-19T15:18:32.752Z,101316.18
2018-09-19T15:21:57.317Z,101317.50
2018-09-19T15:25:21.748Z,101309.16
2018-09-19T15:28:46.230Z,101303.30
2018-09-19T15:32:10.737Z,101304.20
2018-09-19T15:35:35.232Z,101317.49
2018-09-19T15:38:59.679Z,101311.58
2018-09-19T15:42:24.165Z,101307.16
2018-09-19T15:45:48.676Z,101316.62
2018-09-19T15:49:13.115Z,101322.42
2018-09-19T15:52:37.525Z,101322.50
2018-09-19T15:56:03.393Z,101320.34
2018-09-19T15:59:27.844Z,101325.48
2018-09-19T16:02:52.285Z,101321.94
2018-09-19T16:06:16.731Z,101322.98
2018-09-19T16:09:41.192Z,101339.72
2018-09-19T16:13:27.190Z,101345.64
2018-09-19T16:16:51.652Z,101346.94
2018-09-19T16:20:16.175Z,101346.86
2018-09-19T16:23:40.598Z,101346.23
2018-09-19T16:27:05.053Z,101354.77
2018-09-19T16:30:29.514Z,101356.25
2018-09-19T16:33:54.040Z,101357.01
2018-09-19T16:37:18.461Z,101356.93
2018-09-19T16:40:42.902Z,101352.25
2018-09-19T16:44:07.582Z,101363.83
2018-09-19T16:47:32.079Z,101366.41
2018-09-19T16:50:56.497Z,101370.21
2018-09-19T16:54:20.940Z,101372.14
2018-09-19T16:57:45.373Z,101368.70
2018-09-19T17:01:09.864Z,101387.31
2018-09-19T17:04:34.357Z,101384.91
2018-09-19T17:07:58.922Z,101390.68
2018-09-19T17:11:23.401Z,101385.48
2018-09-19T17:14:47.803Z,101390.53
2018-09-19T17:18:12.233Z,101393.44
2018-09-19T17:23:12.525Z,101393.97
2018-09-19T17:26:36.985Z,101408.67
2018-09-19T17:30:01.427Z,101406.55
2018-09-19T17:33:26.104Z,101415.67
2018-09-19T17:36:50.637Z,101415.78
2018-09-19T17:40:15.082Z,101421.04
2018-09-19T17:43:39.472Z,101423.36
2018-09-19T17:47:03.978Z,101425.95
2018-09-19T17:50:28.501Z,101432.10
2018-09-19T17:53:52.955Z,101440.39
2018-09-19T17:57:17.422Z,101450.55
2018-09-19T18:00:41.857Z,101451.79
2018-09-19T18:04:06.390Z,101450.73
2018-09-19T18:07:30.797Z,101450.98
2018-09-19T18:10:55.261Z,101454.80
2018-09-19T18:14:19.762Z,101456.55
2018-09-19T18:17:44.265Z,101459.23
2018-09-19T18:21:08.798Z,101461.88
2018-09-19T18:24:33.256Z,101470.87
2018-09-19T18:27:57.675Z,101473.05
2018-09-19T18:31:22.119Z,101475.94
2018-09-19T18:34:46.593Z,101478.09
2018-09-19T18:38:11.147Z,101483.56
2018-09-19T18:41:36.078Z,101479.15
2018-09-19T18:45:00.521Z,101485.45
2018-09-19T18:48:25.243Z,101492.34
2018-09-19T18:51:49.732Z,101491.08
2018-09-19T18:55:14.225Z,101501.41
2018-09-19T18:58:38.816Z,101502.53
2018-09-19T19:02:03.290Z,101500.75
2018-09-19T19:05:27.745Z,101508.16
2018-09-19T19:08:52.205Z,101505.11
2018-09-19T19:12:17.966Z,101514.25
2018-09-19T19:15:42.366Z,101516.86
2018-09-19T19:19:07.820Z,101515.30
2018-09-19T19:22:32.348Z,101517.39
2018-09-19T19:25:58.227Z,101516.84
2018-09-19T19:29:23.301Z,101524.24
2018-09-19T19:32:48.862Z,101525.50
2018-09-19T19:36:13.709Z,101530.00
2018-09-19T19:39:38.381Z,101531.72
2018-09-19T19:43:03.975Z,101524.95
2018-09-19T19:46:29.767Z,101537.09
2018-09-19T19:49:55.042Z,101539.54
2018-09-19T19:53:19.496Z,101540.36
2018-09-19T19:56:51.128Z,101549.55
2018-09-19T20:00:15.587Z,101552.34
2018-09-19T20:03:40.207Z,101556.94
2018-09-19T20:07:05.337Z,101556.80
2018-09-19T20:10:34.283Z,101553.06
2018-09-19T20:14:01.450Z,101549.58
2018-09-19T20:17:25.991Z,101547.28
2018-09-19T20:20:50.454Z,101554.97
2018-09-19T20:24:14.932Z,101555.39
2018-09-19T20:27:39.539Z,101555.05
2018-09-19T20:31:04.142Z,101557.02
2018-09-19T20:34:28.691Z,101561.45
2018-09-19T20:37:53.203Z,101567.81
2018-09-19T20:41:17.688Z,101561.02
2018-09-19T20:44:42.187Z,101567.25
2018-09-19T20:48:06.862Z,101565.41
2018-09-19T20:51:31.346Z,101565.50
2018-09-19T20:54:55.836Z,101572.84
2018-09-19T20:58:20.415Z,101578.42
2018-09-19T21:01:44.873Z,101578.17
2018-09-19T21:05:09.419Z,101585.63
2018-09-19T21:08:33.845Z,101587.62
2018-09-19T21:11:58.328Z,101590.56
2018-09-19T21:15:23.453Z,101597.48
2018-09-19T21:18:47.954Z,101598.13
2018-09-19T21:22:12.637Z,101603.17
2018-09-19T21:25:36.943Z,101601.27
2018-09-19T21:29:01.419Z,101595.77
2018-09-19T21:32:26.019Z,101601.41
2018-09-19T21:35:50.449Z,101603.06
2018-09-19T21:39:14.864Z,101604.05
2018-09-19T21:42:39.291Z,101607.11
2018-09-19T21:46:03.713Z,101600.85
2018-09-19T21:49:28.147Z,101601.11
2018-09-19T21:52:52.575Z,101604.90
2018-09-19T21:56:16.995Z,101605.69
2018-09-19T21:59:41.444Z,101596.67
2018-09-19T22:03:06.078Z,101601.65
2018-09-19T22:06:30.488Z,101603.73
2018-09-19T22:10:01.676Z,101604.84
2018-09-19T22:13:26.113Z,101599.53
2018-09-19T22:16:50.519Z,101599.61
2018-09-19T22:20:14.973Z,101603.27
2018-09-19T22:23:39.386Z,101601.98
2018-09-19T22:27:03.827Z,101598.20
2018-09-19T22:30:28.277Z,101598.75
2018-09-19T22:33:52.702Z,101597.52
2018-09-19T22:37:17.118Z,101593.23
2018-09-19T22:40:41.539Z,101590.48
2018-09-19T22:44:06.049Z,101582.59
2018-09-19T22:47:30.489Z,101587.20
2018-09-19T22:50:54.915Z,101582.40
2018-09-19T22:54:19.339Z,101582.73
2018-09-19T22:57:43.741Z,101578.90
2018-09-19T23:01:08.161Z,101576.08
2018-09-19T23:04:32.609Z,101575.49
2018-09-19T23:07:57.035Z,101590.02
2018-09-19T23:11:21.449Z,101586.16
2018-09-19T23:14:45.918Z,101581.88
2018-09-19T23:18:10.357Z,101585.45
2018-09-19T23:21:34.800Z,101580.27
2018-09-19T23:24:59.180Z,101576.31
2018-09-19T23:28:23.616Z,101570.33
2018-09-19T23:31:48.095Z,101570.45
2018-09-19T23:35:12.526Z,101571.12
2018-09-19T23:38:36.983Z,101564.77
2018-09-19T23:42:02.351Z,101564.06
2018-09-19T23:45:26.772Z,101564.80
2018-09-19T23:48:51.177Z,101560.11
2018-09-19T23:52:15.626Z,101562.34
2018-09-19T23:55:40.065Z,101555.36
2018-09-19T23:59:04.523Z,101558.84
